Time;durP1;ratioP1;P1;durP2;ratioP2;P2;SDS_P1;SDS_P2;PMS_P1;PMS_P2;Temp;Humidity;BMP_temperature;BMP_pressure;BME280_temperature;BME280_humidity;BME280_pressure;Samples;Min_cycle;Max_cycle;Signal;HPM_P1;HPM_P2
2024/01/14 00:01:56;;;;;;;;;;;;;;;;;;2205650;59;2016;-19
2024/01/14 00:04:26;;;;;;;;;;;;;;;;;;2209128;59;1991;-17
2024/01/14 00:06:57;;;;;;;;;;;;;;;;;;2210810;66;2005;-17
2024/01/14 00:09:27;;;;;;;;;;;;;;;;;;2208923;59;2464;-17
2024/01/14 00:11:57;;;;;;;;;;;;;;;;;;2208395;67;1947;-19
2024/01/14 00:14:28;;;;;;;;;;;;;;;;;;2212050;58;1748;-19
2024/01/14 00:16:58;;;;;;;;;;;;;;;;;;2209004;59;2288;-19
2024/01/14 00:19:28;;;;;;;;;;;;;;;;;;2208449;67;2621;-17
2024/01/14 00:21:58;;;;;;;;;;;;;;;;;;2208402;59;2453;-17
2024/01/14 00:24:29;;;;;;;;;;;;;;;;;;2209992;59;1830;-19
2024/01/14 00:26:59;;;;;;;;;;;;;;;;;;2211975;59;2793;-19
2024/01/14 00:29:29;;;;;;;;;;;;;;;;;;2209099;59;2460;-19
2024/01/14 00:32:00;;;;;;;;;;;;;;;;;;2208890;59;2071;-20
2024/01/14 00:34:30;;;;;;;;;;;;;;;;;;2209826;59;1894;-17
2024/01/14 00:37:01;;;;;;;;;;;;;;;;;;2208431;59;2478;-17
2024/01/14 00:39:35;;;;;;;;;;;;;;;;;;2209457;67;1798;-17
2024/01/14 00:42:07;;;;;;;;;;;;;;;;;;2208139;59;1806;-19
2024/01/14 00:44:41;;;;;;;;;;;;;;;;;;2208888;67;2526;-17
2024/01/14 00:47:11;;;;;;;;;;;;;;;;;;2208522;59;1950;-19
2024/01/14 00:49:42;;;;;;;;;;;;;;;;;;2209076;59;2163;-19
2024/01/14 00:52:12;;;;;;;;;;;;;;;;;;2207848;59;1996;-19
2024/01/14 00:54:42;;;;;;;;;;;;;;;;;;2209686;59;2188;-19
2024/01/14 00:57:13;;;;;;;;;;;;;;;;;;2206846;59;1840;-17
2024/01/14 00:59:43;;;;;;;;;;;;;;;;;;2205290;59;2121;-17
2024/01/14 01:02:14;;;;;;;;;;;;;;;;;;2201974;59;2350;-17
2024/01/14 01:04:45;;;;;;;;;;;;;;;;;;2203814;59;1860;-17
2024/01/14 01:07:15;;;;;;;;;;;;;;;;;;2208135;67;2092;-17
2024/01/14 01:09:45;;;;;;;;;;;;;;;;;;2210977;59;1857;-17
2024/01/14 01:12:16;;;;;;;;;;;;;;;;;;2207725;67;2287;-17
2024/01/14 01:14:47;;;;;;;;;;;;;;;;;;2208705;59;1950;-19
2024/01/14 01:17:17;;;;;;;;;;;;;;;;;;2210165;59;2022;-17
2024/01/14 01:19:48;;;;;;;;;;;;;;;;;;2209981;59;2451;-19
2024/01/14 01:22:19;;;;;;;;;;;;;;;;;;2208630;59;2750;-19
2024/01/14 01:24:49;;;;;;;;;;;;;;;;;;2209615;59;1765;-19
2024/01/14 01:27:20;;;;;;;;;;;;;;;;;;2208287;59;2261;-19
2024/01/14 01:29:50;;;;;;;;;;;;;;;;;;2209422;67;2104;-19
2024/01/14 01:32:21;;;;;;;;;;;;;;;;;;2209112;59;2085;-17
2024/01/14 01:34:52;;;;;;;;;;;;;;;;;;2209368;59;2119;-17
2024/01/14 01:37:23;;;;;;;;;;;;;;;;;;2211187;66;1706;-17
2024/01/14 01:39:53;;;;;;;;;;;;;;;;;;2208036;59;2679;-17
2024/01/14 01:42:23;;;;;;;;;;;;;;;;;;2208966;59;2385;-17
2024/01/14 01:44:54;;;;;;;;;;;;;;;;;;2208768;67;1881;-19
2024/01/14 01:47:24;;;;;;;;;;;;;;;;;;2208931;59;2239;-19
2024/01/14 01:49:54;;;;;;;;;;;;;;;;;;2207722;59;2642;-19
2024/01/14 01:52:25;;;;;;;;;;;;;;;;;;2207446;59;1842;-19
2024/01/14 01:54:56;;;;;;;;;;;;;;;;;;2207537;59;2093;-19
2024/01/14 01:57:26;;;;;;;;;;;;;;;;;;2208500;59;1869;-19
2024/01/14 01:59:57;;;;;;;;;;;;;;;;;;2208168;59;2550;-17
2024/01/14 02:02:28;;;;;;;;;;;;;;;;;;2209096;59;2696;-19
2024/01/14 02:04:58;;;;;;;;;;;;;;;;;;2207643;59;2351;-19
2024/01/14 02:07:29;;;;;;;;;;;;;;;;;;2209207;59;2609;-19
2024/01/14 02:10:00;;;;;;;;;;;;;;;;;;2207715;59;1849;-17
2024/01/14 02:12:30;;;;;;;;;;;;;;;;;;2207348;59;2228;-17
2024/01/14 02:15:01;;;;;;;;;;;;;;;;;;2204774;59;1824;-19
2024/01/14 02:17:31;;;;;;;;;;;;;;;;;;2209065;67;1764;-19
2024/01/14 02:20:01;;;;;;;;;;;;;;;;;;2207910;59;1829;-19
2024/01/14 02:22:32;;;;;;;;;;;;;;;;;;2208729;67;1805;-19
2024/01/14 02:25:03;;;;;;;;;;;;;;;;;;2207974;67;1878;-19
2024/01/14 02:27:34;;;;;;;;;;;;;;;;;;2208788;67;1971;-19
2024/01/14 02:30:05;;;;;;;;;;;;;;;;;;2207635;59;1955;-17
2024/01/14 02:32:37;;;;;;;;;;;;;;;;;;2211370;66;1969;-19
2024/01/14 02:35:07;;;;;;;;;;;;;;;;;;2208206;60;1874;-24
2024/01/14 02:37:43;;;;;;;;;;;;;;;;;;2209630;67;1988;-17
2024/01/14 02:40:14;;;;;;;;;;;;;;;;;;2208326;59;1895;-17
2024/01/14 02:42:44;;;;;;;;;;;;;;;;;;2209209;67;1910;-19
2024/01/14 02:45:14;;;;;;;;;;;;;;;;;;2207241;67;3031;-19
2024/01/14 02:47:45;;;;;;;;;;;;;;;;;;2208989;67;2231;-19
2024/01/14 02:50:15;;;;;;;;;;;;;;;;;;2206749;59;2484;-19
2024/01/14 02:52:45;;;;;;;;;;;;;;;;;;2209344;59;1747;-19
2024/01/14 02:55:16;;;;;;;;;;;;;;;;;;2207906;59;2791;-17
2024/01/14 02:57:47;;;;;;;;;;;;;;;;;;2208719;59;2220;-19
2024/01/14 03:00:18;;;;;;;;;;;;;;;;;;2207648;59;2629;-19
2024/01/14 03:02:49;;;;;;;;;;;;;;;;;;2209540;59;2547;-19
2024/01/14 03:05:19;;;;;;;;;;;;;;;;;;2208009;59;1985;-19
2024/01/14 03:07:49;;;;;;;;;;;;;;;;;;2208938;59;1942;-19
2024/01/14 03:10:19;;;;;;;;;;;;;;;;;;2208505;67;2040;-19
2024/01/14 03:12:50;;;;;;;;;;;;;;;;;;2209200;59;1907;-17
2024/01/14 03:15:20;;;;;;;;;;;;;;;;;;2208354;59;1822;-17
2024/01/14 03:17:50;;;;;;;;;;;;;;;;;;2208710;67;1730;-17
2024/01/14 03:20:22;;;;;;;;;;;;;;;;;;2208406;67;2008;-17
2024/01/14 03:22:52;;;;;;;;;;;;;;;;;;2209236;67;1707;-17
2024/01/14 03:25:23;;;;;;;;;;;;;;;;;;2208416;59;1802;-19
2024/01/14 03:27:53;;;;;;;;;;;;;;;;;;2208696;59;1933;-19
2024/01/14 03:30:24;;;;;;;;;;;;;;;;;;2208248;67;1826;-19
2024/01/14 03:32:56;;;;;;;;;;;;;;;;;;2208970;67;1758;-17
2024/01/14 03:35:26;;;;;;;;;;;;;;;;;;2208397;59;2422;-17
2024/01/14 03:37:56;;;;;;;;;;;;;;;;;;2209518;59;1657;-17
2024/01/14 03:40:27;;;;;;;;;;;;;;;;;;2207633;59;1820;-17
2024/01/14 03:42:57;;;;;;;;;;;;;;;;;;2208727;60;1966;-20
2024/01/14 03:45:27;;;;;;;;;;;;;;;;;;2207712;59;1894;-18
2024/01/14 03:47:58;;;;;;;;;;;;;;;;;;2208720;67;2507;-19
2024/01/14 03:50:28;;;;;;;;;;;;;;;;;;2207711;67;1935;-17
2024/01/14 03:52:58;;;;;;;;;;;;;;;;;;2208712;59;3114;-17
2024/01/14 03:55:29;;;;;;;;;;;;;;;;;;2209951;59;2681;-19
2024/01/14 03:57:59;;;;;;;;;;;;;;;;;;2208195;59;1882;-17
2024/01/14 04:00:30;;;;;;;;;;;;;;;;;;2207859;59;2287;-19
2024/01/14 04:03:00;;;;;;;;;;;;;;;;;;2207830;59;1832;-20
2024/01/14 04:05:31;;;;;;;;;;;;;;;;;;2207850;59;2124;-19
2024/01/14 04:08:01;;;;;;;;;;;;;;;;;;2210252;59;2022;-19
2024/01/14 04:10:32;;;;;;;;;;;;;;;;;;2209332;59;1813;-17
2024/01/14 04:13:02;;;;;;;;;;;;;;;;;;2208752;59;1832;-17
2024/01/14 04:15:32;;;;;;;;;;;;;;;;;;2209413;66;1850;-17
2024/01/14 04:18:03;;;;;;;;;;;;;;;;;;2208161;67;1844;-17
2024/01/14 04:20:33;;;;;;;;;;;;;;;;;;2211797;66;1896;-17
2024/01/14 04:23:07;;;;;;;;;;;;;;;;;;2207771;59;1980;-17
2024/01/14 04:25:37;;;;;;;;;;;;;;;;;;2209534;67;2036;-17
2024/01/14 04:28:08;;;;;;;;;;;;;;;;;;2208091;59;1926;-17
2024/01/14 04:30:38;;;;;;;;;;;;;;;;;;2207771;59;1824;-17
2024/01/14 04:33:08;;;;;;;;;;;;;;;;;;2207519;59;2540;-17
2024/01/14 04:35:39;;;;;;;;;;;;;;;;;;2209664;59;2011;-17
2024/01/14 04:38:09;;;;;;;;;;;;;;;;;;2209077;67;2526;-17
2024/01/14 04:40:39;;;;;;;;;;;;;;;;;;2209142;59;1780;-19
2024/01/14 04:43:11;;;;;;;;;;;;;;;;;;2209309;67;1906;-17
2024/01/14 04:45:42;;;;;;;;;;;;;;;;;;2209173;59;2046;-19
2024/01/14 04:48:12;;;;;;;;;;;;;;;;;;2207815;67;2040;-20
2024/01/14 04:50:43;;;;;;;;;;;;;;;;;;2209624;59;1806;-19
2024/01/14 04:53:13;;;;;;;;;;;;;;;;;;2208859;59;2438;-19
2024/01/14 04:55:44;;;;;;;;;;;;;;;;;;2211185;59;2085;-19
2024/01/14 04:58:16;;;;;;;;;;;;;;;;;;2208096;59;1716;-19
2024/01/14 05:00:47;;;;;;;;;;;;;;;;;;2209387;59;2308;-19
2024/01/14 05:03:17;;;;;;;;;;;;;;;;;;2208564;59;1825;-19
2024/01/14 05:05:47;;;;;;;;;;;;;;;;;;2208711;67;2203;-19
2024/01/14 05:08:18;;;;;;;;;;;;;;;;;;2208441;67;2032;-19
2024/01/14 05:10:48;;;;;;;;;;;;;;;;;;2209475;59;1870;-19
2024/01/14 05:13:19;;;;;;;;;;;;;;;;;;2210909;66;2135;-20
2024/01/14 05:15:49;;;;;;;;;;;;;;;;;;2208501;59;2109;-17
2024/01/14 05:18:20;;;;;;;;;;;;;;;;;;2207829;59;1838;-17
2024/01/14 05:20:50;;;;;;;;;;;;;;;;;;2209708;59;2074;-17
2024/01/14 05:23:21;;;;;;;;;;;;;;;;;;2207241;63;1977;-17
2024/01/14 05:25:52;;;;;;;;;;;;;;;;;;2209176;59;1879;-17
2024/01/14 05:28:22;;;;;;;;;;;;;;;;;;2208822;59;2084;-17
2024/01/14 05:30:52;;;;;;;;;;;;;;;;;;2209863;60;1816;-17
2024/01/14 05:33:23;;;;;;;;;;;;;;;;;;2210531;66;2022;-17
2024/01/14 05:35:53;;;;;;;;;;;;;;;;;;2208648;67;1852;-17
2024/01/14 05:38:23;;;;;;;;;;;;;;;;;;2208314;59;2687;-19
2024/01/14 05:40:54;;;;;;;;;;;;;;;;;;2211574;59;1909;-19
2024/01/14 05:43:24;;;;;;;;;;;;;;;;;;2208334;59;2228;-21
2024/01/14 05:45:55;;;;;;;;;;;;;;;;;;2210267;59;1771;-17
2024/01/14 05:48:25;;;;;;;;;;;;;;;;;;2208296;59;1942;-17
2024/01/14 05:50:55;;;;;;;;;;;;;;;;;;2208705;59;1880;-17
2024/01/14 05:53:26;;;;;;;;;;;;;;;;;;2208302;59;2118;-17
2024/01/14 05:55:57;;;;;;;;;;;;;;;;;;2210424;59;2148;-17
2024/01/14 05:58:28;;;;;;;;;;;;;;;;;;2207446;59;1811;-19
2024/01/14 06:00:58;;;;;;;;;;;;;;;;;;2208429;59;2337;-17
2024/01/14 06:03:32;;;;;;;;;;;;;;;;;;2209258;59;1999;-17
2024/01/14 06:06:02;;;;;;;;;;;;;;;;;;2209472;59;1769;-17
2024/01/14 06:08:33;;;;;;;;;;;;;;;;;;2208192;59;1941;-19
2024/01/14 06:11:04;;;;;;;;;;;;;;;;;;2210015;59;1808;-19
2024/01/14 06:13:37;;;;;;;;;;;;;;;;;;2208464;59;1898;-17
2024/01/14 06:16:08;;;;;;;;;;;;;;;;;;2208486;67;1810;-17
2024/01/14 06:18:39;;;;;;;;;;;;;;;;;;2207416;67;1829;-17
2024/01/14 06:21:09;;;;;;;;;;;;;;;;;;2208853;67;1904;-17
2024/01/14 06:23:40;;;;;;;;;;;;;;;;;;2211537;59;1783;-17
2024/01/14 06:26:17;;;;;;;;;;;;;;;;;;2208652;59;1878;-17
2024/01/14 06:28:47;;;;;;;;;;;;;;;;;;2208016;59;1931;-17
2024/01/14 06:31:18;;;;;;;;;;;;;;;;;;2208634;59;1842;-17
2024/01/14 06:33:48;;;;;;;;;;;;;;;;;;2210698;60;1897;-17
2024/01/14 06:36:19;;;;;;;;;;;;;;;;;;2207886;59;2232;-17
2024/01/14 06:38:49;;;;;;;;;;;;;;;;;;2205428;67;2064;-17
2024/01/14 06:41:20;;;;;;;;;;;;;;;;;;2210562;59;1724;-17
2024/01/14 06:43:51;;;;;;;;;;;;;;;;;;2208421;67;2128;-19
2024/01/14 06:46:21;;;;;;;;;;;;;;;;;;2208581;59;3112;-19
2024/01/14 06:48:52;;;;;;;;;;;;;;;;;;2209046;67;1945;-19
2024/01/14 06:51:25;;;;;;;;;;;;;;;;;;2208146;59;1948;-19
2024/01/14 06:53:56;;;;;;;;;;;;;;;;;;2208123;59;2317;-19
2024/01/14 06:56:27;;;;;;;;;;;;;;;;;;2211220;60;1999;-19
2024/01/14 06:58:57;;;;;;;;;;;;;;;;;;2208196;59;2030;-19
2024/01/14 07:01:27;;;;;;;;;;;;;;;;;;2208750;59;2852;-17
2024/01/14 07:03:57;;;;;;;;;;;;;;;;;;2209228;59;1783;-19
2024/01/14 07:06:28;;;;;;;;;;;;;;;;;;2207967;59;1961;-19
2024/01/14 07:08:58;;;;;;;;;;;;;;;;;;2208812;67;1991;-19
2024/01/14 07:11:29;;;;;;;;;;;;;;;;;;2207091;59;1832;-19
2024/01/14 07:13:59;;;;;;;;;;;;;;;;;;2209129;59;2300;-19
2024/01/14 07:16:30;;;;;;;;;;;;;;;;;;2211127;66;2458;-19
2024/01/14 07:19:00;;;;;;;;;;;;;;;;;;2208634;59;2730;-19
2024/01/14 07:21:31;;;;;;;;;;;;;;;;;;2208028;59;2081;-19
2024/01/14 07:24:01;;;;;;;;;;;;;;;;;;2208635;59;2185;-17
2024/01/14 07:26:32;;;;;;;;;;;;;;;;;;2209382;59;2174;-17
2024/01/14 07:29:02;;;;;;;;;;;;;;;;;;2207534;67;1914;-17
2024/01/14 07:31:32;;;;;;;;;;;;;;;;;;2206788;59;2022;-17
2024/01/14 07:34:03;;;;;;;;;;;;;;;;;;2207754;67;1746;-17
2024/01/14 07:36:33;;;;;;;;;;;;;;;;;;2206920;59;1820;-17
2024/01/14 07:39:04;;;;;;;;;;;;;;;;;;2208323;59;1805;-17
2024/01/14 07:41:35;;;;;;;;;;;;;;;;;;2208008;59;1955;-17
2024/01/14 07:44:06;;;;;;;;;;;;;;;;;;2208640;67;2994;-17
2024/01/14 07:46:41;;;;;;;;;;;;;;;;;;2206981;59;2201;-17
2024/01/14 07:49:12;;;;;;;;;;;;;;;;;;2207611;59;1925;-17
2024/01/14 07:51:42;;;;;;;;;;;;;;;;;;2208692;59;2148;-17
2024/01/14 07:54:12;;;;;;;;;;;;;;;;;;2212489;59;2342;-17
2024/01/14 07:56:43;;;;;;;;;;;;;;;;;;2203959;59;1991;-18
2024/01/14 07:59:13;;;;;;;;;;;;;;;;;;2209575;59;2393;-17
2024/01/14 08:01:43;;;;;;;;;;;;;;;;;;2207166;59;1875;-17
2024/01/14 08:04:14;;;;;;;;;;;;;;;;;;2212019;59;1834;-17
2024/01/14 08:06:44;;;;;;;;;;;;;;;;;;2208724;60;1972;-17
2024/01/14 08:09:14;;;;;;;;;;;;;;;;;;2209905;59;2229;-20
2024/01/14 08:11:45;;;;;;;;;;;;;;;;;;2210494;59;2463;-19
2024/01/14 08:14:15;;;;;;;;;;;;;;;;;;2210285;59;1884;-19
2024/01/14 08:16:45;;;;;;;;;;;;;;;;;;2208782;59;1874;-19
2024/01/14 08:19:16;;;;;;;;;;;;;;;;;;2209533;59;1874;-19
2024/01/14 08:21:47;;;;;;;;;;;;;;;;;;2210087;59;2133;-26
2024/01/14 08:24:20;;;;;;;;;;;;;;;;;;2207275;59;2452;-19
2024/01/14 08:26:51;;;;;;;;;;;;;;;;;;2209713;59;2409;-23
2024/01/14 08:29:21;;;;;;;;;;;;;;;;;;2209264;59;1982;-19
2024/01/14 08:31:54;;;;;;;;;;;;;;;;;;2209554;59;1968;-17
2024/01/14 08:34:26;;;;;;;;;;;;;;;;;;2208812;59;2515;-17
2024/01/14 08:36:56;;;;;;;;;;;;;;;;;;2209143;59;1955;-17
2024/01/14 08:39:26;;;;;;;;;;;;;;;;;;2207687;67;2600;-19
2024/01/14 08:41:56;;;;;;;;;;;;;;;;;;2209025;59;2499;-19
2024/01/14 08:44:27;;;;;;;;;;;;;;;;;;2207173;59;2450;-19
2024/01/14 08:46:57;;;;;;;;;;;;;;;;;;2209978;59;1801;-19
2024/01/14 08:49:29;;;;;;;;;;;;;;;;;;2210839;59;2148;-19
2024/01/14 08:52:01;;;;;;;;;;;;;;;;;;2208371;59;1899;-19
2024/01/14 08:54:31;;;;;;;;;;;;;;;;;;2208933;59;2551;-17
2024/01/14 08:57:02;;;;;;;;;;;;;;;;;;2209598;59;2094;-17
2024/01/14 08:59:32;;;;;;;;;;;;;;;;;;2207886;59;2343;-17
2024/01/14 09:02:03;;;;;;;;;;;;;;;;;;2209422;59;2211;-19
2024/01/14 09:04:33;;;;;;;;;;;;;;;;;;2204256;59;3913;-17
2024/01/14 09:07:06;;;;;;;;;;;;;;;;;;2207714;59;1912;-17
2024/01/14 09:09:37;;;;;;;;;;;;;;;;;;2208951;59;2215;-19
2024/01/14 09:12:07;;;;;;;;;;;;;;;;;;2209602;59;1887;-19
2024/01/14 09:14:38;;;;;;;;;;;;;;;;;;2207903;59;2552;-18
2024/01/14 09:17:11;;;;;;;;;;;;;;;;;;2208942;59;2150;-17
2024/01/14 09:19:42;;;;;;;;;;;;;;;;;;2206818;59;2097;-17
2024/01/14 09:22:12;;;;;;;;;;;;;;;;;;2208604;59;2039;-17
2024/01/14 09:24:45;;;;;;;;;;;;;;;;;;2207161;59;1765;-17
2024/01/14 09:27:17;;;;;;;;;;;;;;;;;;2209800;59;2495;-17
2024/01/14 09:29:47;;;;;;;;;;;;;;;;;;2207405;59;2552;-17
2024/01/14 09:32:17;;;;;;;;;;;;;;;;;;2208826;59;2129;-17
2024/01/14 09:34:48;;;;;;;;;;;;;;;;;;2206860;59;2256;-19
2024/01/14 09:37:18;;;;;;;;;;;;;;;;;;2207089;59;1899;-17
2024/01/14 09:39:48;;;;;;;;;;;;;;;;;;2208174;67;2097;-19
2024/01/14 09:42:35;;;;;;;;;;;;;;;;;;2208523;59;2267;-19
2024/01/14 09:45:05;;;;;;;;;;;;;;;;;;2208098;59;2279;-19
2024/01/14 09:47:36;;;;;;;;;;;;;;;;;;2207785;59;1945;-19
2024/01/14 09:50:07;;;;;;;;;;;;;;;;;;2207454;59;2488;-19
2024/01/14 09:52:39;;;;;;;;;;;;;;;;;;2207986;59;2543;-17
2024/01/14 09:55:10;;;;;;;;;;;;;;;;;;2208846;59;2236;-18
2024/01/14 09:57:44;;;;;;;;;;;;;;;;;;2208490;59;2359;-17
2024/01/14 10:00:14;;;;;;;;;;;;;;;;;;2212065;59;2422;-19
2024/01/14 10:02:47;;;;;;;;;;;;;;;;;;2207392;59;2758;-17
2024/01/14 10:05:18;;;;;;;;;;;;;;;;;;2207478;59;2273;-20
2024/01/14 10:07:48;;;;;;;;;;;;;;;;;;2206403;59;2552;-19
2024/01/14 10:10:19;;;;;;;;;;;;;;;;;;2208871;59;1858;-19
2024/01/14 10:12:49;;;;;;;;;;;;;;;;;;2206338;67;2318;-19
2024/01/14 10:15:20;;;;;;;;;;;;;;;;;;2209491;59;2470;-19
2024/01/14 10:17:50;;;;;;;;;;;;;;;;;;2207854;59;1860;-17
2024/01/14 10:20:21;;;;;;;;;;;;;;;;;;2205708;59;2630;-18
2024/01/14 10:22:51;;;;;;;;;;;;;;;;;;2206380;59;2504;-17
2024/01/14 10:25:25;;;;;;;;;;;;;;;;;;2208332;67;1873;-19
2024/01/14 10:27:56;;;;;;;;;;;;;;;;;;2207704;59;3853;-19
2024/01/14 10:30:30;;;;;;;;;;;;;;;;;;2206200;66;2483;-19
2024/01/14 10:33:02;;;;;;;;;;;;;;;;;;2207398;59;2959;-19
2024/01/14 10:35:33;;;;;;;;;;;;;;;;;;2208953;59;2173;-20
2024/01/14 10:38:04;;;;;;;;;;;;;;;;;;2210633;59;2540;-19
2024/01/14 10:40:34;;;;;;;;;;;;;;;;;;2208205;59;2369;-19
2024/01/14 10:43:05;;;;;;;;;;;;;;;;;;2207570;59;2200;-19
2024/01/14 10:45:35;;;;;;;;;;;;;;;;;;2207332;59;2010;-19
2024/01/14 10:48:09;;;;;;;;;;;;;;;;;;2207124;59;1987;-17
2024/01/14 10:50:42;;;;;;;;;;;;;;;;;;2207441;67;2727;-19
2024/01/14 10:53:23;;;;;;;;;;;;;;;;;;2208745;59;2358;-19
2024/01/14 10:56:03;;;;;;;;;;;;;;;;;;2210335;59;2275;-17
2024/01/14 10:58:36;;;;;;;;;;;;;;;;;;2203993;67;1793;-17
2024/01/14 11:01:07;;;;;;;;;;;;;;;;;;2207988;59;2208;-17
2024/01/14 11:03:39;;;;;;;;;;;;;;;;;;2203460;59;2265;-19
2024/01/14 11:06:10;;;;;;;;;;;;;;;;;;2208644;67;1946;-19
2024/01/14 11:08:42;;;;;;;;;;;;;;;;;;2205132;59;2563;-19
2024/01/14 11:11:14;;;;;;;;;;;;;;;;;;2208291;59;1912;-19
2024/01/14 11:14:07;;;;;;;;;;;;;;;;;;2208101;59;2260;-19
2024/01/14 11:16:59;;;;;;;;;;;;;;;;;;2207785;59;1670;-19
2024/01/14 11:19:34;;;;;;;;;;;;;;;;;;2203672;67;1881;-20
2024/01/14 11:22:12;;;;;;;;;;;;;;;;;;2209469;59;1830;-19
2024/01/14 11:24:43;;;;;;;;;;;;;;;;;;2208863;67;1913;-17
2024/01/14 11:27:14;;;;;;;;;;;;;;;;;;2209432;59;1972;-17
2024/01/14 11:29:44;;;;;;;;;;;;;;;;;;2208458;67;1927;-17
2024/01/14 11:32:20;;;;;;;;;;;;;;;;;;2208851;59;3266;-19
2024/01/14 11:34:51;;;;;;;;;;;;;;;;;;2208485;59;2645;-19
2024/01/14 11:37:38;;;;;;;;;;;;;;;;;;2209278;59;1685;-19
2024/01/14 11:40:23;;;;;;;;;;;;;;;;;;2207128;59;2336;-19
2024/01/14 11:42:56;;;;;;;;;;;;;;;;;;2207630;59;2282;-20
2024/01/14 11:45:26;;;;;;;;;;;;;;;;;;2209384;59;2202;-20
2024/01/14 11:47:56;;;;;;;;;;;;;;;;;;2206898;59;1911;-20
2024/01/14 11:50:36;;;;;;;;;;;;;;;;;;2210096;67;1625;-19
2024/01/14 11:53:07;;;;;;;;;;;;;;;;;;2208547;59;2514;-19
2024/01/14 11:55:53;;;;;;;;;;;;;;;;;;2208350;59;1895;-19
2024/01/14 11:58:28;;;;;;;;;;;;;;;;;;2209935;59;2183;-19
2024/01/14 12:00:59;;;;;;;;;;;;;;;;;;2207777;59;2623;-19
2024/01/14 12:03:29;;;;;;;;;;;;;;;;;;2207921;59;2545;-20
2024/01/14 12:06:00;;;;;;;;;;;;;;;;;;2203592;59;1879;-19
2024/01/14 12:08:33;;;;;;;;;;;;;;;;;;2208757;67;2097;-19
2024/01/14 12:11:04;;;;;;;;;;;;;;;;;;2203617;67;1865;-20
2024/01/14 12:13:35;;;;;;;;;;;;;;;;;;2209466;59;1871;-20
2024/01/14 12:16:06;;;;;;;;;;;;;;;;;;2208160;59;2250;-19
2024/01/14 12:18:40;;;;;;;;;;;;;;;;;;2209863;59;2551;-20
2024/01/14 12:21:11;;;;;;;;;;;;;;;;;;2209689;59;1935;-20
2024/01/14 12:23:41;;;;;;;;;;;;;;;;;;2209768;59;1874;-19
2024/01/14 12:26:24;;;;;;;;;;;;;;;;;;2213768;59;1820;-19
2024/01/14 12:28:55;;;;;;;;;;;;;;;;;;2208653;59;2079;-20
2024/01/14 12:31:25;;;;;;;;;;;;;;;;;;2210864;58;2350;-19
2024/01/14 12:33:56;;;;;;;;;;;;;;;;;;2206178;59;3400;-19
2024/01/14 12:36:26;;;;;;;;;;;;;;;;;;2208778;59;1935;-20
2024/01/14 12:38:56;;;;;;;;;;;;;;;;;;2208751;67;1905;-19
2024/01/14 12:41:27;;;;;;;;;;;;;;;;;;2209703;59;1758;-20
2024/01/14 12:43:57;;;;;;;;;;;;;;;;;;2207293;67;2402;-19
2024/01/14 12:46:33;;;;;;;;;;;;;;;;;;2209059;67;2030;-19
2024/01/14 12:49:04;;;;;;;;;;;;;;;;;;2207799;59;2005;-20
2024/01/14 12:51:35;;;;;;;;;;;;;;;;;;2207766;67;2520;-19
2024/01/14 12:54:06;;;;;;;;;;;;;;;;;;2208690;59;2232;-20
2024/01/14 12:56:37;;;;;;;;;;;;;;;;;;2209239;67;1977;-20
2024/01/14 12:59:07;;;;;;;;;;;;;;;;;;2207931;59;2294;-20
2024/01/14 13:01:38;;;;;;;;;;;;;;;;;;2205857;59;1805;-20
2024/01/14 13:04:08;;;;;;;;;;;;;;;;;;2208681;59;2545;-19
2024/01/14 13:06:38;;;;;;;;;;;;;;;;;;2206337;59;1835;-20
2024/01/14 13:09:09;;;;;;;;;;;;;;;;;;2208160;59;2594;-20
2024/01/14 13:11:57;;;;;;;;;;;;;;;;;;2208395;67;1934;-19
2024/01/14 13:14:28;;;;;;;;;;;;;;;;;;2205295;59;3399;-19
2024/01/14 13:16:59;;;;;;;;;;;;;;;;;;2208454;59;1916;-19
2024/01/14 13:19:29;;;;;;;;;;;;;;;;;;2207125;67;1836;-19
2024/01/14 13:21:59;;;;;;;;;;;;;;;;;;2207808;67;1887;-20
2024/01/14 13:24:29;;;;;;;;;;;;;;;;;;2210708;59;2315;-20
2024/01/14 13:27:00;;;;;;;;;;;;;;;;;;2207351;59;2562;-20
2024/01/14 13:29:30;;;;;;;;;;;;;;;;;;2208875;59;1942;-19
2024/01/14 13:32:00;;;;;;;;;;;;;;;;;;2208093;59;2366;-19
2024/01/14 13:34:31;;;;;;;;;;;;;;;;;;2209270;59;2850;-19
2024/01/14 13:37:01;;;;;;;;;;;;;;;;;;2208440;59;3605;-19
2024/01/14 13:39:31;;;;;;;;;;;;;;;;;;2210035;67;2019;-19
2024/01/14 13:42:26;;;;;;;;;;;;;;;;;;2209648;59;2220;-20
2024/01/14 13:44:56;;;;;;;;;;;;;;;;;;2209150;59;2841;-19
2024/01/14 13:47:29;;;;;;;;;;;;;;;;;;2211166;59;1980;-19
2024/01/14 13:50:00;;;;;;;;;;;;;;;;;;2208008;59;2320;-19
2024/01/14 13:52:30;;;;;;;;;;;;;;;;;;2209856;59;2324;-19
2024/01/14 13:55:01;;;;;;;;;;;;;;;;;;2207648;59;2447;-19
2024/01/14 13:57:31;;;;;;;;;;;;;;;;;;2209894;59;1767;-19
2024/01/14 14:00:04;;;;;;;;;;;;;;;;;;2209758;59;2468;-19
2024/01/14 14:02:36;;;;;;;;;;;;;;;;;;2209248;59;2160;-19
2024/01/14 14:05:14;;;;;;;;;;;;;;;;;;2210701;59;2152;-19
2024/01/14 14:07:44;;;;;;;;;;;;;;;;;;2208233;59;3024;-19
2024/01/14 14:10:14;;;;;;;;;;;;;;;;;;2207746;59;2066;-19
2024/01/14 14:12:45;;;;;;;;;;;;;;;;;;2208784;59;2606;-19
2024/01/14 14:15:15;;;;;;;;;;;;;;;;;;2209589;59;1902;-19
2024/01/14 14:17:46;;;;;;;;;;;;;;;;;;2208098;59;2370;-19
2024/01/14 14:20:16;;;;;;;;;;;;;;;;;;2206829;59;2461;-19
2024/01/14 14:22:46;;;;;;;;;;;;;;;;;;2207816;59;2483;-19
2024/01/14 14:25:17;;;;;;;;;;;;;;;;;;2206862;59;2243;-19
2024/01/14 14:27:48;;;;;;;;;;;;;;;;;;2207493;59;1997;-19
2024/01/14 14:30:23;;;;;;;;;;;;;;;;;;2208445;59;2196;-19
2024/01/14 14:32:53;;;;;;;;;;;;;;;;;;2206958;59;2091;-19
2024/01/14 14:35:23;;;;;;;;;;;;;;;;;;2203611;59;2347;-19
2024/01/14 14:37:54;;;;;;;;;;;;;;;;;;2207536;59;3147;-19
2024/01/14 14:40:24;;;;;;;;;;;;;;;;;;2207856;59;1651;-19
2024/01/14 14:42:55;;;;;;;;;;;;;;;;;;2207861;59;2199;-19
2024/01/14 14:45:25;;;;;;;;;;;;;;;;;;2208566;59;2169;-19
2024/01/14 14:47:55;;;;;;;;;;;;;;;;;;2203226;59;2183;-19
2024/01/14 14:50:26;;;;;;;;;;;;;;;;;;2208628;59;1988;-19
2024/01/14 14:52:56;;;;;;;;;;;;;;;;;;2206270;59;2154;-19
2024/01/14 14:55:26;;;;;;;;;;;;;;;;;;2210065;59;2070;-19
2024/01/14 14:57:57;;;;;;;;;;;;;;;;;;2207406;59;2029;-19
2024/01/14 15:00:27;;;;;;;;;;;;;;;;;;2210510;59;2998;-19
2024/01/14 15:02:58;;;;;;;;;;;;;;;;;;2207731;59;2021;-19
2024/01/14 15:05:28;;;;;;;;;;;;;;;;;;2207935;59;1757;-19
2024/01/14 15:07:58;;;;;;;;;;;;;;;;;;2207190;59;2369;-19
2024/01/14 15:10:28;;;;;;;;;;;;;;;;;;2207327;59;2450;-19
2024/01/14 15:12:59;;;;;;;;;;;;;;;;;;2208250;59;3805;-19
2024/01/14 15:15:29;;;;;;;;;;;;;;;;;;2209891;59;1917;-19
2024/01/14 15:18:00;;;;;;;;;;;;;;;;;;2207759;59;2081;-19
2024/01/14 15:20:30;;;;;;;;;;;;;;;;;;2211974;59;1752;-19
2024/01/14 15:23:01;;;;;;;;;;;;;;;;;;2207207;59;1846;-19
2024/01/14 15:25:31;;;;;;;;;;;;;;;;;;2209448;59;2587;-19
2024/01/14 15:28:01;;;;;;;;;;;;;;;;;;2207892;59;2351;-19
2024/01/14 15:30:31;;;;;;;;;;;;;;;;;;2207621;59;3729;-19
2024/01/14 15:33:02;;;;;;;;;;;;;;;;;;2207916;59;2719;-19
2024/01/14 15:35:32;;;;;;;;;;;;;;;;;;2206603;59;2307;-19
2024/01/14 15:38:03;;;;;;;;;;;;;;;;;;2207041;59;2042;-19
2024/01/14 15:40:33;;;;;;;;;;;;;;;;;;2206387;59;3442;-19
2024/01/14 15:43:03;;;;;;;;;;;;;;;;;;2205708;59;3411;-20
2024/01/14 15:45:33;;;;;;;;;;;;;;;;;;2208184;59;2529;-17
2024/01/14 15:48:05;;;;;;;;;;;;;;;;;;2206280;59;3625;-17
2024/01/14 15:50:36;;;;;;;;;;;;;;;;;;2206902;59;2154;-17
2024/01/14 15:53:06;;;;;;;;;;;;;;;;;;2205863;59;2199;-17
2024/01/14 15:55:37;;;;;;;;;;;;;;;;;;2205405;59;2648;-17
2024/01/14 15:58:08;;;;;;;;;;;;;;;;;;2208871;53;3369;-22
2024/01/14 16:00:38;;;;;;;;;;;;;;;;;;2210643;58;2199;-21
2024/01/14 16:03:08;;;;;;;;;;;;;;;;;;2212183;58;4002;-22
2024/01/14 16:05:39;;;;;;;;;;;;;;;;;;2211095;58;2326;-22
2024/01/14 16:08:09;;;;;;;;;;;;;;;;;;2210601;59;2246;-21
2024/01/14 16:10:39;;;;;;;;;;;;;;;;;;2210454;59;2315;-22
2024/01/14 16:13:10;;;;;;;;;;;;;;;;;;2210143;59;2504;-22
2024/01/14 16:15:40;;;;;;;;;;;;;;;;;;2212545;58;2337;-21
2024/01/14 16:18:10;;;;;;;;;;;;;;;;;;2211748;59;3312;-21
2024/01/14 16:20:41;;;;;;;;;;;;;;;;;;2210299;59;1940;-22
2024/01/14 16:23:11;;;;;;;;;;;;;;;;;;2209234;58;2835;-22
2024/01/14 16:25:41;;;;;;;;;;;;;;;;;;2211366;59;2092;-21
2024/01/14 16:28:14;;;;;;;;;;;;;;;;;;2211361;59;2010;-21
2024/01/14 16:30:46;;;;;;;;;;;;;;;;;;2208210;59;3769;-22
2024/01/14 16:33:16;;;;;;;;;;;;;;;;;;2210526;59;2875;-22
2024/01/14 16:35:47;;;;;;;;;;;;;;;;;;2204719;59;3409;-22
2024/01/14 16:38:17;;;;;;;;;;;;;;;;;;2209934;59;2310;-22
2024/01/14 16:40:53;;;;;;;;;;;;;;;;;;2210528;59;2588;-22
2024/01/14 16:43:26;;;;;;;;;;;;;;;;;;2210333;59;1757;-22
2024/01/14 16:45:56;;;;;;;;;;;;;;;;;;2210237;59;2382;-22
2024/01/14 16:48:26;;;;;;;;;;;;;;;;;;2211837;59;2256;-22
2024/01/14 16:50:57;;;;;;;;;;;;;;;;;;2211749;59;1875;-21
2024/01/14 16:53:27;;;;;;;;;;;;;;;;;;2209860;59;2388;-22
2024/01/14 16:55:57;;;;;;;;;;;;;;;;;;2207211;59;2707;-22
2024/01/14 16:58:27;;;;;;;;;;;;;;;;;;2210233;59;1864;-22
2024/01/14 17:00:58;;;;;;;;;;;;;;;;;;2209158;59;2543;-22
2024/01/14 17:03:29;;;;;;;;;;;;;;;;;;2209784;66;2133;-21
2024/01/14 17:05:59;;;;;;;;;;;;;;;;;;2210004;59;1969;-21
2024/01/14 17:08:30;;;;;;;;;;;;;;;;;;2209758;66;1988;-21
2024/01/14 17:11:04;;;;;;;;;;;;;;;;;;2209303;58;2658;-21
2024/01/14 17:13:34;;;;;;;;;;;;;;;;;;2212392;58;1889;-21
2024/01/14 17:16:05;;;;;;;;;;;;;;;;;;2209876;66;2418;-21
2024/01/14 17:18:35;;;;;;;;;;;;;;;;;;2209892;59;1853;-21
2024/01/14 17:21:06;;;;;;;;;;;;;;;;;;2209861;58;2231;-22
2024/01/14 17:23:36;;;;;;;;;;;;;;;;;;2209623;59;2100;-21
2024/01/14 17:26:07;;;;;;;;;;;;;;;;;;2209103;59;2188;-22
2024/01/14 17:28:40;;;;;;;;;;;;;;;;;;2212259;66;2906;-21
2024/01/14 17:31:11;;;;;;;;;;;;;;;;;;2209620;59;1966;-21